Terminal Aerodrome Forecast
Issued by NWS

Current Version | Previous Version | Text Only | Print | Product List | Glossary Off
Versions: 1 2 3 4 5 6 7 8 9 10 11 12 13 14 15 16 17 18 19 20 21 22

000
FTUS41 KPBZ 171139
TAFMGW
TAF
KMGW 171139Z 1712/1812 00000KT P6SM BKN050 WS020/20035KT
     FM171400 19006KT P6SM -RA OVC025 WS020/20035KT
     FM180000 24008KT P6SM VCSH OVC015
     FM180700 24008KT P6SM VCSH BKN008=

USA.gov is the U.S. government's official web portal to all federal, state and local government web resources and services.